sensor_id;sensor_type;location;lat;lon;timestamp;P1;durP1;ratioP1;P2;durP2;ratioP2
6203;SDS011;3135;42.602;23.468;2024-02-28T00:01:36;24.67;;;9.75;;
6203;SDS011;3135;42.602;23.468;2024-02-28T00:04:02;23.00;;;9.30;;
6203;SDS011;3135;42.602;23.468;2024-02-28T00:06:27;21.93;;;9.30;;
6203;SDS011;3135;42.602;23.468;2024-02-28T00:08:53;19.93;;;9.30;;
6203;SDS011;3135;42.602;23.468;2024-02-28T00:11:20;23.63;;;9.37;;
6203;SDS011;3135;42.602;23.468;2024-02-28T00:13:45;27.70;;;12.63;;
6203;SDS011;3135;42.602;23.468;2024-02-28T00:16:11;27.77;;;11.40;;
6203;SDS011;3135;42.602;23.468;2024-02-28T00:18:36;27.77;;;10.77;;
6203;SDS011;3135;42.602;23.468;2024-02-28T00:21:02;27.80;;;10.80;;
6203;SDS011;3135;42.602;23.468;2024-02-28T00:23:28;26.58;;;9.98;;
6203;SDS011;3135;42.602;23.468;2024-02-28T00:25:54;28.73;;;10.55;;
6203;SDS011;3135;42.602;23.468;2024-02-28T00:28:20;29.45;;;10.95;;
6203;SDS011;3135;42.602;23.468;2024-02-28T00:30:46;27.47;;;10.67;;
6203;SDS011;3135;42.602;23.468;2024-02-28T00:33:11;28.07;;;11.13;;
6203;SDS011;3135;42.602;23.468;2024-02-28T00:35:37;30.30;;;10.93;;
6203;SDS011;3135;42.602;23.468;2024-02-28T00:38:02;32.07;;;12.23;;
6203;SDS011;3135;42.602;23.468;2024-02-28T00:40:28;27.53;;;10.53;;
6203;SDS011;3135;42.602;23.468;2024-02-28T00:42:53;32.93;;;11.57;;
6203;SDS011;3135;42.602;23.468;2024-02-28T00:45:19;27.73;;;10.60;;
6203;SDS011;3135;42.602;23.468;2024-02-28T00:47:44;29.50;;;11.30;;
6203;SDS011;3135;42.602;23.468;2024-02-28T00:50:10;29.83;;;11.13;;
6203;SDS011;3135;42.602;23.468;2024-02-28T00:52:36;26.77;;;10.88;;
6203;SDS011;3135;42.602;23.468;2024-02-28T00:55:02;27.50;;;11.90;;
6203;SDS011;3135;42.602;23.468;2024-02-28T00:57:29;31.77;;;12.95;;
6203;SDS011;3135;42.602;23.468;2024-02-28T00:59:55;33.28;;;12.90;;
6203;SDS011;3135;42.602;23.468;2024-02-28T01:02:21;27.13;;;10.93;;
6203;SDS011;3135;42.602;23.468;2024-02-28T01:04:47;30.90;;;12.40;;
6203;SDS011;3135;42.602;23.468;2024-02-28T01:07:12;27.65;;;11.00;;
6203;SDS011;3135;42.602;23.468;2024-02-28T01:09:37;30.10;;;11.75;;
6203;SDS011;3135;42.602;23.468;2024-02-28T01:12:03;29.45;;;10.80;;
6203;SDS011;3135;42.602;23.468;2024-02-28T01:14:29;29.98;;;10.90;;
6203;SDS011;3135;42.602;23.468;2024-02-28T01:16:54;26.30;;;10.82;;
6203;SDS011;3135;42.602;23.468;2024-02-28T01:19:19;33.13;;;11.60;;
6203;SDS011;3135;42.602;23.468;2024-02-28T01:21:45;30.07;;;11.50;;
6203;SDS011;3135;42.602;23.468;2024-02-28T01:24:10;32.37;;;11.30;;
6203;SDS011;3135;42.602;23.468;2024-02-28T01:26:36;29.97;;;10.80;;
6203;SDS011;3135;42.602;23.468;2024-02-28T01:29:01;27.87;;;10.63;;
6203;SDS011;3135;42.602;23.468;2024-02-28T01:31:27;26.98;;;11.50;;
6203;SDS011;3135;42.602;23.468;2024-02-28T01:33:53;28.58;;;10.63;;
6203;SDS011;3135;42.602;23.468;2024-02-28T01:36:20;27.27;;;10.40;;
6203;SDS011;3135;42.602;23.468;2024-02-28T01:38:46;25.75;;;10.43;;
6203;SDS011;3135;42.602;23.468;2024-02-28T01:41:11;24.45;;;9.52;;
6203;SDS011;3135;42.602;23.468;2024-02-28T01:43:37;23.23;;;9.52;;
6203;SDS011;3135;42.602;23.468;2024-02-28T01:46:03;25.40;;;10.48;;
6203;SDS011;3135;42.602;23.468;2024-02-28T01:48:38;24.52;;;10.57;;
6203;SDS011;3135;42.602;23.468;2024-02-28T01:51:03;26.88;;;10.57;;
6203;SDS011;3135;42.602;23.468;2024-02-28T01:53:30;31.17;;;10.75;;
6203;SDS011;3135;42.602;23.468;2024-02-28T01:55:56;26.30;;;10.93;;
6203;SDS011;3135;42.602;23.468;2024-02-28T01:58:22;30.48;;;11.40;;
6203;SDS011;3135;42.602;23.468;2024-02-28T02:00:48;29.23;;;11.48;;
6203;SDS011;3135;42.602;23.468;2024-02-28T02:03:14;29.48;;;11.25;;
6203;SDS011;3135;42.602;23.468;2024-02-28T02:05:41;29.07;;;11.20;;
6203;SDS011;3135;42.602;23.468;2024-02-28T02:08:06;27.05;;;10.93;;
6203;SDS011;3135;42.602;23.468;2024-02-28T02:10:32;30.60;;;11.63;;
6203;SDS011;3135;42.602;23.468;2024-02-28T02:13:04;25.77;;;10.30;;
6203;SDS011;3135;42.602;23.468;2024-02-28T02:15:30;27.67;;;11.23;;
6203;SDS011;3135;42.602;23.468;2024-02-28T02:17:56;26.85;;;9.73;;
6203;SDS011;3135;42.602;23.468;2024-02-28T02:20:21;23.73;;;8.90;;
6203;SDS011;3135;42.602;23.468;2024-02-28T02:22:47;19.98;;;8.30;;
6203;SDS011;3135;42.602;23.468;2024-02-28T02:25:13;21.60;;;8.95;;
6203;SDS011;3135;42.602;23.468;2024-02-28T02:27:39;20.27;;;8.45;;
6203;SDS011;3135;42.602;23.468;2024-02-28T02:30:04;21.07;;;8.90;;
6203;SDS011;3135;42.602;23.468;2024-02-28T02:32:30;19.27;;;8.13;;
6203;SDS011;3135;42.602;23.468;2024-02-28T02:34:56;22.45;;;8.70;;
6203;SDS011;3135;42.602;23.468;2024-02-28T02:37:21;24.75;;;9.63;;
6203;SDS011;3135;42.602;23.468;2024-02-28T02:39:47;34.90;;;13.63;;
6203;SDS011;3135;42.602;23.468;2024-02-28T02:42:12;22.27;;;9.40;;
6203;SDS011;3135;42.602;23.468;2024-02-28T02:44:41;24.17;;;10.00;;
6203;SDS011;3135;42.602;23.468;2024-02-28T02:47:07;34.00;;;11.80;;
6203;SDS011;3135;42.602;23.468;2024-02-28T02:49:32;34.37;;;13.50;;
6203;SDS011;3135;42.602;23.468;2024-02-28T02:51:58;31.43;;;12.63;;
6203;SDS011;3135;42.602;23.468;2024-02-28T02:54:23;30.47;;;12.90;;
6203;SDS011;3135;42.602;23.468;2024-02-28T02:56:48;34.17;;;11.77;;
6203;SDS011;3135;42.602;23.468;2024-02-28T02:59:14;33.13;;;11.80;;
6203;SDS011;3135;42.602;23.468;2024-02-28T03:01:39;30.10;;;11.67;;
6203;SDS011;3135;42.602;23.468;2024-02-28T03:04:05;36.40;;;12.50;;
6203;SDS011;3135;42.602;23.468;2024-02-28T03:06:30;36.00;;;12.30;;
6203;SDS011;3135;42.602;23.468;2024-02-28T03:08:57;30.73;;;11.93;;
6203;SDS011;3135;42.602;23.468;2024-02-28T03:11:23;33.88;;;11.85;;
6203;SDS011;3135;42.602;23.468;2024-02-28T03:13:48;31.40;;;12.10;;
6203;SDS011;3135;42.602;23.468;2024-02-28T03:16:13;33.95;;;12.50;;
6203;SDS011;3135;42.602;23.468;2024-02-28T03:18:39;30.65;;;11.70;;
6203;SDS011;3135;42.602;23.468;2024-02-28T03:21:04;39.67;;;16.83;;
6203;SDS011;3135;42.602;23.468;2024-02-28T03:23:30;31.60;;;12.60;;
6203;SDS011;3135;42.602;23.468;2024-02-28T03:25:56;31.25;;;13.60;;
6203;SDS011;3135;42.602;23.468;2024-02-28T03:28:22;29.07;;;11.17;;
6203;SDS011;3135;42.602;23.468;2024-02-28T03:30:47;34.30;;;12.40;;
6203;SDS011;3135;42.602;23.468;2024-02-28T03:33:13;37.17;;;14.00;;
6203;SDS011;3135;42.602;23.468;2024-02-28T03:35:38;31.13;;;12.27;;
6203;SDS011;3135;42.602;23.468;2024-02-28T03:38:04;31.50;;;12.10;;
6203;SDS011;3135;42.602;23.468;2024-02-28T03:40:29;29.17;;;12.23;;
6203;SDS011;3135;42.602;23.468;2024-02-28T03:42:55;36.13;;;13.20;;
6203;SDS011;3135;42.602;23.468;2024-02-28T03:45:20;35.40;;;13.88;;
6203;SDS011;3135;42.602;23.468;2024-02-28T03:47:45;34.85;;;12.38;;
6203;SDS011;3135;42.602;23.468;2024-02-28T03:50:11;36.28;;;13.43;;
6203;SDS011;3135;42.602;23.468;2024-02-28T03:52:36;31.90;;;13.40;;
6203;SDS011;3135;42.602;23.468;2024-02-28T03:55:02;42.42;;;18.08;;
6203;SDS011;3135;42.602;23.468;2024-02-28T03:57:28;35.25;;;12.07;;
6203;SDS011;3135;42.602;23.468;2024-02-28T03:59:53;36.87;;;14.70;;
6203;SDS011;3135;42.602;23.468;2024-02-28T04:02:19;41.30;;;14.43;;
6203;SDS011;3135;42.602;23.468;2024-02-28T04:04:44;27.70;;;11.23;;
6203;SDS011;3135;42.602;23.468;2024-02-28T04:07:10;30.77;;;11.23;;
6203;SDS011;3135;42.602;23.468;2024-02-28T04:09:35;26.70;;;10.63;;
6203;SDS011;3135;42.602;23.468;2024-02-28T04:12:01;28.90;;;11.67;;
6203;SDS011;3135;42.602;23.468;2024-02-28T04:14:26;29.10;;;10.93;;
6203;SDS011;3135;42.602;23.468;2024-02-28T04:16:52;26.67;;;10.53;;
6203;SDS011;3135;42.602;23.468;2024-02-28T04:19:18;28.23;;;10.60;;
6203;SDS011;3135;42.602;23.468;2024-02-28T04:21:43;30.03;;;11.27;;
6203;SDS011;3135;42.602;23.468;2024-02-28T04:24:09;27.83;;;10.20;;
6203;SDS011;3135;42.602;23.468;2024-02-28T04:26:35;26.08;;;10.73;;
6203;SDS011;3135;42.602;23.468;2024-02-28T04:29:01;25.90;;;10.10;;
6203;SDS011;3135;42.602;23.468;2024-02-28T04:31:28;26.17;;;10.38;;
6203;SDS011;3135;42.602;23.468;2024-02-28T04:33:54;28.03;;;10.23;;
6203;SDS011;3135;42.602;23.468;2024-02-28T04:36:19;25.17;;;9.73;;
6203;SDS011;3135;42.602;23.468;2024-02-28T04:38:45;25.93;;;10.27;;
6203;SDS011;3135;42.602;23.468;2024-02-28T04:41:10;24.33;;;10.03;;
6203;SDS011;3135;42.602;23.468;2024-02-28T04:43:35;27.57;;;9.90;;
6203;SDS011;3135;42.602;23.468;2024-02-28T04:46:01;28.83;;;10.87;;
6203;SDS011;3135;42.602;23.468;2024-02-28T04:48:28;31.63;;;11.83;;
6203;SDS011;3135;42.602;23.468;2024-02-28T04:50:53;31.25;;;12.40;;
6203;SDS011;3135;42.602;23.468;2024-02-28T04:53:19;32.83;;;12.52;;
6203;SDS011;3135;42.602;23.468;2024-02-28T04:55:45;29.70;;;10.73;;
6203;SDS011;3135;42.602;23.468;2024-02-28T04:58:11;28.73;;;11.00;;
6203;SDS011;3135;42.602;23.468;2024-02-28T05:00:36;28.60;;;10.40;;
6203;SDS011;3135;42.602;23.468;2024-02-28T05:03:02;26.60;;;10.77;;
6203;SDS011;3135;42.602;23.468;2024-02-28T05:05:27;25.38;;;9.90;;
6203;SDS011;3135;42.602;23.468;2024-02-28T05:07:52;27.43;;;10.27;;
6203;SDS011;3135;42.602;23.468;2024-02-28T05:10:18;27.93;;;10.90;;
6203;SDS011;3135;42.602;23.468;2024-02-28T05:12:43;24.97;;;9.80;;
6203;SDS011;3135;42.602;23.468;2024-02-28T05:15:09;24.75;;;9.88;;
6203;SDS011;3135;42.602;23.468;2024-02-28T05:17:34;26.17;;;10.57;;
6203;SDS011;3135;42.602;23.468;2024-02-28T05:20:00;25.73;;;9.30;;
6203;SDS011;3135;42.602;23.468;2024-02-28T05:22:25;27.83;;;10.63;;
6203;SDS011;3135;42.602;23.468;2024-02-28T05:24:51;27.30;;;10.27;;
6203;SDS011;3135;42.602;23.468;2024-02-28T05:27:17;23.73;;;8.95;;
6203;SDS011;3135;42.602;23.468;2024-02-28T05:29:42;22.65;;;9.35;;
6203;SDS011;3135;42.602;23.468;2024-02-28T05:32:08;23.15;;;9.68;;
6203;SDS011;3135;42.602;23.468;2024-02-28T05:34:34;23.85;;;9.73;;
6203;SDS011;3135;42.602;23.468;2024-02-28T05:37:00;24.10;;;9.73;;
6203;SDS011;3135;42.602;23.468;2024-02-28T05:39:26;24.60;;;9.63;;
6203;SDS011;3135;42.602;23.468;2024-02-28T05:41:54;22.73;;;8.98;;
6203;SDS011;3135;42.602;23.468;2024-02-28T05:44:19;31.77;;;12.13;;
6203;SDS011;3135;42.602;23.468;2024-02-28T05:46:45;29.30;;;10.13;;
6203;SDS011;3135;42.602;23.468;2024-02-28T05:49:10;29.87;;;11.27;;
6203;SDS011;3135;42.602;23.468;2024-02-28T05:51:36;32.00;;;12.20;;
6203;SDS011;3135;42.602;23.468;2024-02-28T05:54:01;30.20;;;11.27;;
6203;SDS011;3135;42.602;23.468;2024-02-28T05:56:27;31.87;;;11.30;;
6203;SDS011;3135;42.602;23.468;2024-02-28T05:58:52;31.83;;;11.17;;
6203;SDS011;3135;42.602;23.468;2024-02-28T06:01:18;36.87;;;13.13;;
6203;SDS011;3135;42.602;23.468;2024-02-28T06:03:49;34.60;;;12.17;;
6203;SDS011;3135;42.602;23.468;2024-02-28T06:06:18;27.35;;;11.35;;
6203;SDS011;3135;42.602;23.468;2024-02-28T06:08:43;26.05;;;10.40;;
6203;SDS011;3135;42.602;23.468;2024-02-28T06:11:09;25.13;;;9.93;;
6203;SDS011;3135;42.602;23.468;2024-02-28T06:13:35;26.20;;;10.43;;
6203;SDS011;3135;42.602;23.468;2024-02-28T06:16:01;22.15;;;9.07;;
6203;SDS011;3135;42.602;23.468;2024-02-28T06:18:28;21.90;;;8.80;;
6203;SDS011;3135;42.602;23.468;2024-02-28T06:20:58;22.25;;;9.10;;
6203;SDS011;3135;42.602;23.468;2024-02-28T06:23:24;18.08;;;7.97;;
6203;SDS011;3135;42.602;23.468;2024-02-28T06:25:49;18.95;;;7.95;;
6203;SDS011;3135;42.602;23.468;2024-02-28T06:28:15;18.08;;;7.60;;
6203;SDS011;3135;42.602;23.468;2024-02-28T06:30:42;25.20;;;10.65;;
6203;SDS011;3135;42.602;23.468;2024-02-28T06:33:08;25.02;;;10.65;;
6203;SDS011;3135;42.602;23.468;2024-02-28T06:35:34;27.52;;;11.13;;
6203;SDS011;3135;42.602;23.468;2024-02-28T06:37:59;26.70;;;10.80;;
6203;SDS011;3135;42.602;23.468;2024-02-28T06:40:24;30.37;;;11.37;;
6203;SDS011;3135;42.602;23.468;2024-02-28T06:42:50;29.30;;;12.07;;
6203;SDS011;3135;42.602;23.468;2024-02-28T06:45:15;29.50;;;12.37;;
6203;SDS011;3135;42.602;23.468;2024-02-28T06:47:41;31.23;;;13.07;;
6203;SDS011;3135;42.602;23.468;2024-02-28T06:50:06;37.83;;;13.77;;
6203;SDS011;3135;42.602;23.468;2024-02-28T06:52:33;33.00;;;13.03;;
6203;SDS011;3135;42.602;23.468;2024-02-28T06:55:00;34.47;;;13.27;;
6203;SDS011;3135;42.602;23.468;2024-02-28T06:57:28;35.10;;;13.00;;
6203;SDS011;3135;42.602;23.468;2024-02-28T06:59:53;32.20;;;12.43;;
6203;SDS011;3135;42.602;23.468;2024-02-28T07:02:19;31.40;;;12.07;;
6203;SDS011;3135;42.602;23.468;2024-02-28T07:04:44;32.07;;;11.90;;
6203;SDS011;3135;42.602;23.468;2024-02-28T07:07:10;36.13;;;13.53;;
6203;SDS011;3135;42.602;23.468;2024-02-28T07:09:37;33.37;;;12.90;;
6203;SDS011;3135;42.602;23.468;2024-02-28T07:12:03;27.95;;;12.05;;
6203;SDS011;3135;42.602;23.468;2024-02-28T07:14:29;32.50;;;13.17;;
6203;SDS011;3135;42.602;23.468;2024-02-28T07:16:54;32.92;;;12.52;;
6203;SDS011;3135;42.602;23.468;2024-02-28T07:19:20;32.03;;;13.27;;
6203;SDS011;3135;42.602;23.468;2024-02-28T07:21:46;32.40;;;13.33;;
6203;SDS011;3135;42.602;23.468;2024-02-28T07:24:11;33.53;;;13.33;;
6203;SDS011;3135;42.602;23.468;2024-02-28T07:26:37;37.60;;;13.47;;
6203;SDS011;3135;42.602;23.468;2024-02-28T07:29:03;35.47;;;13.47;;
6203;SDS011;3135;42.602;23.468;2024-02-28T07:31:28;31.57;;;12.37;;
6203;SDS011;3135;42.602;23.468;2024-02-28T07:33:53;36.97;;;13.60;;
6203;SDS011;3135;42.602;23.468;2024-02-28T07:36:19;34.40;;;13.63;;
6203;SDS011;3135;42.602;23.468;2024-02-28T07:38:45;35.47;;;14.10;;
6203;SDS011;3135;42.602;23.468;2024-02-28T07:41:10;30.98;;;13.38;;
6203;SDS011;3135;42.602;23.468;2024-02-28T07:43:36;34.65;;;13.27;;
6203;SDS011;3135;42.602;23.468;2024-02-28T07:46:11;31.38;;;11.95;;
6203;SDS011;3135;42.602;23.468;2024-02-28T07:48:37;32.97;;;11.93;;
6203;SDS011;3135;42.602;23.468;2024-02-28T07:51:09;35.23;;;12.83;;
6203;SDS011;3135;42.602;23.468;2024-02-28T07:53:35;30.85;;;12.15;;
6203;SDS011;3135;42.602;23.468;2024-02-28T07:56:00;27.58;;;12.02;;
6203;SDS011;3135;42.602;23.468;2024-02-28T07:58:26;30.70;;;11.80;;
6203;SDS011;3135;42.602;23.468;2024-02-28T08:00:51;32.03;;;12.07;;
6203;SDS011;3135;42.602;23.468;2024-02-28T08:03:20;32.13;;;12.05;;
6203;SDS011;3135;42.602;23.468;2024-02-28T08:05:45;28.83;;;11.67;;
6203;SDS011;3135;42.602;23.468;2024-02-28T08:08:11;31.57;;;11.67;;
6203;SDS011;3135;42.602;23.468;2024-02-28T08:10:37;29.13;;;11.30;;
6203;SDS011;3135;42.602;23.468;2024-02-28T08:13:03;27.10;;;11.05;;
6203;SDS011;3135;42.602;23.468;2024-02-28T08:15:32;28.15;;;11.95;;
6203;SDS011;3135;42.602;23.468;2024-02-28T08:17:58;30.13;;;12.53;;
6203;SDS011;3135;42.602;23.468;2024-02-28T08:20:23;31.87;;;12.10;;
6203;SDS011;3135;42.602;23.468;2024-02-28T08:22:49;32.00;;;12.60;;
6203;SDS011;3135;42.602;23.468;2024-02-28T08:25:15;36.08;;;13.35;;
6203;SDS011;3135;42.602;23.468;2024-02-28T08:27:41;28.52;;;12.77;;
6203;SDS011;3135;42.602;23.468;2024-02-28T08:30:07;32.97;;;12.80;;
6203;SDS011;3135;42.602;23.468;2024-02-28T08:32:32;29.77;;;12.63;;
6203;SDS011;3135;42.602;23.468;2024-02-28T08:34:58;28.45;;;11.85;;
6203;SDS011;3135;42.602;23.468;2024-02-28T08:37:24;30.98;;;12.10;;
6203;SDS011;3135;42.602;23.468;2024-02-28T08:39:52;31.98;;;12.27;;
6203;SDS011;3135;42.602;23.468;2024-02-28T08:42:18;28.30;;;11.60;;
6203;SDS011;3135;42.602;23.468;2024-02-28T08:44:43;24.43;;;11.03;;
6203;SDS011;3135;42.602;23.468;2024-02-28T08:47:08;30.37;;;12.63;;
6203;SDS011;3135;42.602;23.468;2024-02-28T08:49:36;27.23;;;11.88;;
6203;SDS011;3135;42.602;23.468;2024-02-28T08:52:04;31.85;;;12.38;;
6203;SDS011;3135;42.602;23.468;2024-02-28T08:54:29;24.53;;;10.90;;
6203;SDS011;3135;42.602;23.468;2024-02-28T08:56:55;28.40;;;11.83;;
6203;SDS011;3135;42.602;23.468;2024-02-28T08:59:20;26.57;;;11.10;;
6203;SDS011;3135;42.602;23.468;2024-02-28T09:01:47;29.20;;;11.90;;
6203;SDS011;3135;42.602;23.468;2024-02-28T09:04:13;29.30;;;11.83;;
6203;SDS011;3135;42.602;23.468;2024-02-28T09:06:38;26.07;;;11.67;;
6203;SDS011;3135;42.602;23.468;2024-02-28T09:09:03;27.83;;;11.47;;
6203;SDS011;3135;42.602;23.468;2024-02-28T09:11:29;31.10;;;12.87;;
6203;SDS011;3135;42.602;23.468;2024-02-28T09:13:54;32.10;;;12.80;;
6203;SDS011;3135;42.602;23.468;2024-02-28T09:16:20;32.28;;;13.07;;
6203;SDS011;3135;42.602;23.468;2024-02-28T09:18:45;30.80;;;12.25;;
6203;SDS011;3135;42.602;23.468;2024-02-28T09:21:10;30.50;;;12.63;;
6203;SDS011;3135;42.602;23.468;2024-02-28T09:23:38;29.17;;;11.85;;
6203;SDS011;3135;42.602;23.468;2024-02-28T09:26:04;26.80;;;11.27;;
6203;SDS011;3135;42.602;23.468;2024-02-28T09:28:29;29.20;;;11.30;;
6203;SDS011;3135;42.602;23.468;2024-02-28T09:30:55;27.53;;;11.07;;
6203;SDS011;3135;42.602;23.468;2024-02-28T09:33:20;27.75;;;11.75;;
6203;SDS011;3135;42.602;23.468;2024-02-28T09:35:46;25.47;;;10.93;;
6203;SDS011;3135;42.602;23.468;2024-02-28T09:38:11;22.53;;;10.80;;
6203;SDS011;3135;42.602;23.468;2024-02-28T09:40:37;24.03;;;10.67;;
6203;SDS011;3135;42.602;23.468;2024-02-28T09:43:03;28.25;;;11.50;;
6203;SDS011;3135;42.602;23.468;2024-02-28T09:45:30;24.87;;;11.80;;
6203;SDS011;3135;42.602;23.468;2024-02-28T09:47:57;25.80;;;11.85;;
6203;SDS011;3135;42.602;23.468;2024-02-28T09:50:25;27.13;;;11.35;;
6203;SDS011;3135;42.602;23.468;2024-02-28T09:52:51;27.15;;;11.30;;
6203;SDS011;3135;42.602;23.468;2024-02-28T09:55:16;39.23;;;18.73;;
6203;SDS011;3135;42.602;23.468;2024-02-28T09:57:42;22.13;;;11.40;;
6203;SDS011;3135;42.602;23.468;2024-02-28T10:00:12;29.13;;;11.35;;
6203;SDS011;3135;42.602;23.468;2024-02-28T10:02:39;28.67;;;11.80;;
6203;SDS011;3135;42.602;23.468;2024-02-28T10:05:08;30.13;;;11.53;;
6203;SDS011;3135;42.602;23.468;2024-02-28T10:07:33;25.07;;;11.00;;
6203;SDS011;3135;42.602;23.468;2024-02-28T10:10:00;26.23;;;11.32;;
6203;SDS011;3135;42.602;23.468;2024-02-28T10:12:25;25.87;;;11.07;;
6203;SDS011;3135;42.602;23.468;2024-02-28T10:14:51;25.63;;;11.93;;
6203;SDS011;3135;42.602;23.468;2024-02-28T10:17:16;25.00;;;11.35;;
6203;SDS011;3135;42.602;23.468;2024-02-28T10:19:42;25.65;;;11.02;;
6203;SDS011;3135;42.602;23.468;2024-02-28T10:22:07;26.23;;;12.07;;
6203;SDS011;3135;42.602;23.468;2024-02-28T10:24:36;26.23;;;11.20;;
6203;SDS011;3135;42.602;23.468;2024-02-28T10:27:02;33.07;;;11.97;;
6203;SDS011;3135;42.602;23.468;2024-02-28T10:29:28;25.55;;;11.73;;
6203;SDS011;3135;42.602;23.468;2024-02-28T10:31:57;27.03;;;11.23;;
6203;SDS011;3135;42.602;23.468;2024-02-28T10:34:22;28.20;;;10.90;;
6203;SDS011;3135;42.602;23.468;2024-02-28T10:36:48;26.55;;;11.73;;
6203;SDS011;3135;42.602;23.468;2024-02-28T10:39:14;26.25;;;11.30;;
6203;SDS011;3135;42.602;23.468;2024-02-28T10:41:40;25.13;;;11.57;;
6203;SDS011;3135;42.602;23.468;2024-02-28T10:44:07;24.80;;;11.02;;
6203;SDS011;3135;42.602;23.468;2024-02-28T10:46:33;25.35;;;11.32;;
6203;SDS011;3135;42.602;23.468;2024-02-28T10:49:00;26.05;;;11.40;;
6203;SDS011;3135;42.602;23.468;2024-02-28T10:51:26;29.23;;;11.43;;
6203;SDS011;3135;42.602;23.468;2024-02-28T10:54:05;28.30;;;11.05;;
6203;SDS011;3135;42.602;23.468;2024-02-28T10:56:34;24.75;;;10.15;;
6203;SDS011;3135;42.602;23.468;2024-02-28T10:59:00;24.30;;;10.43;;
6203;SDS011;3135;42.602;23.468;2024-02-28T11:01:26;19.87;;;9.03;;
6203;SDS011;3135;42.602;23.468;2024-02-28T11:03:52;25.75;;;9.63;;
6203;SDS011;3135;42.602;23.468;2024-02-28T11:06:19;21.30;;;9.73;;
6203;SDS011;3135;42.602;23.468;2024-02-28T11:08:49;17.88;;;8.95;;
6203;SDS011;3135;42.602;23.468;2024-02-28T11:11:21;19.65;;;8.88;;
6203;SDS011;3135;42.602;23.468;2024-02-28T11:13:57;20.58;;;9.60;;
6203;SDS011;3135;42.602;23.468;2024-02-28T11:18:58;21.17;;;9.40;;
6203;SDS011;3135;42.602;23.468;2024-02-28T11:21:26;22.38;;;8.50;;
6203;SDS011;3135;42.602;23.468;2024-02-28T11:23:57;16.33;;;7.55;;
6203;SDS011;3135;42.602;23.468;2024-02-28T11:26:23;15.77;;;7.22;;
6203;SDS011;3135;42.602;23.468;2024-02-28T11:28:49;17.70;;;6.60;;
6203;SDS011;3135;42.602;23.468;2024-02-28T11:31:15;15.50;;;7.50;;
6203;SDS011;3135;42.602;23.468;2024-02-28T11:33:41;14.45;;;7.03;;
6203;SDS011;3135;42.602;23.468;2024-02-28T11:36:06;13.60;;;6.82;;
6203;SDS011;3135;42.602;23.468;2024-02-28T11:38:34;11.85;;;5.97;;
6203;SDS011;3135;42.602;23.468;2024-02-28T11:41:03;15.07;;;6.00;;
6203;SDS011;3135;42.602;23.468;2024-02-28T11:43:30;16.23;;;6.30;;
6203;SDS011;3135;42.602;23.468;2024-02-28T11:45:57;13.10;;;5.20;;
6203;SDS011;3135;42.602;23.468;2024-02-28T11:48:24;13.70;;;6.20;;
6203;SDS011;3135;42.602;23.468;2024-02-28T11:50:50;9.77;;;5.43;;
6203;SDS011;3135;42.602;23.468;2024-02-28T11:53:16;9.73;;;5.20;;
6203;SDS011;3135;42.602;23.468;2024-02-28T11:55:42;11.53;;;4.70;;
6203;SDS011;3135;42.602;23.468;2024-02-28T11:58:08;8.47;;;4.60;;
6203;SDS011;3135;42.602;23.468;2024-02-28T12:00:34;7.90;;;4.55;;
6203;SDS011;3135;42.602;23.468;2024-02-28T12:03:06;9.00;;;4.33;;
6203;SDS011;3135;42.602;23.468;2024-02-28T12:05:31;9.20;;;4.30;;
6203;SDS011;3135;42.602;23.468;2024-02-28T12:07:57;8.63;;;4.07;;
6203;SDS011;3135;42.602;23.468;2024-02-28T12:10:23;7.20;;;4.38;;
6203;SDS011;3135;42.602;23.468;2024-02-28T12:12:48;7.10;;;3.90;;
6203;SDS011;3135;42.602;23.468;2024-02-28T12:15:15;9.40;;;4.10;;
6203;SDS011;3135;42.602;23.468;2024-02-28T12:17:42;8.63;;;4.18;;
6203;SDS011;3135;42.602;23.468;2024-02-28T12:20:08;13.18;;;4.85;;
6203;SDS011;3135;42.602;23.468;2024-02-28T12:22:34;8.27;;;3.47;;
6203;SDS011;3135;42.602;23.468;2024-02-28T12:24:59;6.73;;;3.90;;
6203;SDS011;3135;42.602;23.468;2024-02-28T12:27:29;4.93;;;3.30;;
6203;SDS011;3135;42.602;23.468;2024-02-28T12:29:56;8.02;;;3.65;;
6203;SDS011;3135;42.602;23.468;2024-02-28T12:32:21;8.85;;;3.33;;
6203;SDS011;3135;42.602;23.468;2024-02-28T12:34:47;8.57;;;4.70;;
6203;SDS011;3135;42.602;23.468;2024-02-28T12:37:12;8.13;;;3.27;;
6203;SDS011;3135;42.602;23.468;2024-02-28T12:39:38;4.57;;;3.33;;
6203;SDS011;3135;42.602;23.468;2024-02-28T12:42:03;6.67;;;3.40;;
6203;SDS011;3135;42.602;23.468;2024-02-28T12:44:29;7.70;;;3.30;;
6203;SDS011;3135;42.602;23.468;2024-02-28T12:46:55;8.33;;;3.60;;
6203;SDS011;3135;42.602;23.468;2024-02-28T12:49:20;6.80;;;3.03;;
6203;SDS011;3135;42.602;23.468;2024-02-28T12:51:46;6.80;;;3.67;;
6203;SDS011;3135;42.602;23.468;2024-02-28T12:54:13;6.20;;;3.58;;
6203;SDS011;3135;42.602;23.468;2024-02-28T12:56:39;5.25;;;3.10;;
6203;SDS011;3135;42.602;23.468;2024-02-28T12:59:08;8.38;;;3.25;;
6203;SDS011;3135;42.602;23.468;2024-02-28T13:01:34;5.60;;;3.37;;
6203;SDS011;3135;42.602;23.468;2024-02-28T13:04:00;10.20;;;4.00;;
6203;SDS011;3135;42.602;23.468;2024-02-28T13:06:26;7.00;;;3.30;;
6203;SDS011;3135;42.602;23.468;2024-02-28T13:08:52;7.20;;;3.00;;
6203;SDS011;3135;42.602;23.468;2024-02-28T13:11:21;7.30;;;3.45;;
6203;SDS011;3135;42.602;23.468;2024-02-28T13:13:48;6.47;;;2.87;;
6203;SDS011;3135;42.602;23.468;2024-02-28T13:16:16;8.50;;;2.77;;
6203;SDS011;3135;42.602;23.468;2024-02-28T13:18:41;4.65;;;2.60;;
6203;SDS011;3135;42.602;23.468;2024-02-28T13:21:07;7.73;;;3.43;;
6203;SDS011;3135;42.602;23.468;2024-02-28T13:23:34;6.10;;;3.17;;
6203;SDS011;3135;42.602;23.468;2024-02-28T13:26:00;6.23;;;3.20;;
6203;SDS011;3135;42.602;23.468;2024-02-28T13:28:26;9.35;;;2.92;;
6203;SDS011;3135;42.602;23.468;2024-02-28T13:30:56;6.85;;;2.80;;
6203;SDS011;3135;42.602;23.468;2024-02-28T13:33:24;11.93;;;5.13;;
6203;SDS011;3135;42.602;23.468;2024-02-28T13:35:50;9.23;;;4.10;;
6203;SDS011;3135;42.602;23.468;2024-02-28T13:38:16;4.53;;;2.75;;
6203;SDS011;3135;42.602;23.468;2024-02-28T13:40:43;5.50;;;3.67;;
6203;SDS011;3135;42.602;23.468;2024-02-28T13:43:10;4.72;;;3.30;;
6203;SDS011;3135;42.602;23.468;2024-02-28T13:45:36;7.97;;;3.50;;
6203;SDS011;3135;42.602;23.468;2024-02-28T13:48:14;4.88;;;2.50;;
6203;SDS011;3135;42.602;23.468;2024-02-28T13:50:41;11.85;;;4.68;;
6203;SDS011;3135;42.602;23.468;2024-02-28T13:53:07;27.03;;;11.97;;
6203;SDS011;3135;42.602;23.468;2024-02-28T13:55:32;13.10;;;6.20;;
6203;SDS011;3135;42.602;23.468;2024-02-28T13:57:58;9.03;;;4.17;;
6203;SDS011;3135;42.602;23.468;2024-02-28T14:00:23;7.00;;;3.00;;
6203;SDS011;3135;42.602;23.468;2024-02-28T14:02:48;3.90;;;2.30;;
6203;SDS011;3135;42.602;23.468;2024-02-28T14:05:14;5.53;;;2.90;;
6203;SDS011;3135;42.602;23.468;2024-02-28T14:07:39;5.30;;;3.17;;
6203;SDS011;3135;42.602;23.468;2024-02-28T14:10:05;8.93;;;3.33;;
6203;SDS011;3135;42.602;23.468;2024-02-28T14:12:31;9.10;;;4.28;;
6203;SDS011;3135;42.602;23.468;2024-02-28T14:14:56;7.00;;;3.70;;
6203;SDS011;3135;42.602;23.468;2024-02-28T14:17:22;6.95;;;3.70;;
6203;SDS011;3135;42.602;23.468;2024-02-28T14:19:47;7.45;;;3.75;;
6203;SDS011;3135;42.602;23.468;2024-02-28T14:22:13;8.65;;;4.10;;
6203;SDS011;3135;42.602;23.468;2024-02-28T14:24:39;5.38;;;2.80;;
6203;SDS011;3135;42.602;23.468;2024-02-28T14:27:05;4.75;;;2.67;;
6203;SDS011;3135;42.602;23.468;2024-02-28T14:29:30;5.65;;;2.78;;
6203;SDS011;3135;42.602;23.468;2024-02-28T14:31:56;5.78;;;2.17;;
6203;SDS011;3135;42.602;23.468;2024-02-28T14:34:21;3.00;;;1.90;;
6203;SDS011;3135;42.602;23.468;2024-02-28T14:36:47;2.73;;;2.20;;